sensor_id;sensor_type;location;lat;lon;timestamp;temperature;humidity
14670;DHT22;7423;48.722;9.350;2023-01-30T00:01:43;1.80;99.90
14670;DHT22;7423;48.722;9.350;2023-01-30T00:04:11;1.70;99.90
14670;DHT22;7423;48.722;9.350;2023-01-30T00:06:41;1.70;99.90
14670;DHT22;7423;48.722;9.350;2023-01-30T00:09:11;1.70;99.90
14670;DHT22;7423;48.722;9.350;2023-01-30T00:11:40;1.70;99.90
14670;DHT22;7423;48.722;9.350;2023-01-30T00:14:08;1.70;99.90
14670;DHT22;7423;48.722;9.350;2023-01-30T00:16:34;1.60;99.90
14670;DHT22;7423;48.722;9.350;2023-01-30T00:19:02;1.70;99.90
14670;DHT22;7423;48.722;9.350;2023-01-30T00:21:29;1.70;99.90
14670;DHT22;7423;48.722;9.350;2023-01-30T00:23:55;1.70;99.90
14670;DHT22;7423;48.722;9.350;2023-01-30T00:26:22;1.70;99.90
14670;DHT22;7423;48.722;9.350;2023-01-30T00:28:49;1.70;99.90
14670;DHT22;7423;48.722;9.350;2023-01-30T00:31:16;1.60;99.90
14670;DHT22;7423;48.722;9.350;2023-01-30T00:33:43;1.80;99.90
14670;DHT22;7423;48.722;9.350;2023-01-30T00:36:10;1.80;99.90
14670;DHT22;7423;48.722;9.350;2023-01-30T00:38:37;1.80;99.90
14670;DHT22;7423;48.722;9.350;2023-01-30T00:41:04;1.70;99.90
14670;DHT22;7423;48.722;9.350;2023-01-30T00:43:30;1.60;99.90
14670;DHT22;7423;48.722;9.350;2023-01-30T00:46:32;1.60;99.90
14670;DHT22;7423;48.722;9.350;2023-01-30T00:49:18;1.50;99.90
14670;DHT22;7423;48.722;9.350;2023-01-30T00:51:45;1.50;99.90
14670;DHT22;7423;48.722;9.350;2023-01-30T00:54:12;1.60;99.90
14670;DHT22;7423;48.722;9.350;2023-01-30T00:56:39;1.50;99.90
14670;DHT22;7423;48.722;9.350;2023-01-30T00:59:06;1.50;99.90
14670;DHT22;7423;48.722;9.350;2023-01-30T01:01:33;1.60;99.90
14670;DHT22;7423;48.722;9.350;2023-01-30T01:03:59;1.60;99.90
14670;DHT22;7423;48.722;9.350;2023-01-30T01:06:26;1.50;99.90
14670;DHT22;7423;48.722;9.350;2023-01-30T01:08:53;1.50;99.90
14670;DHT22;7423;48.722;9.350;2023-01-30T01:11:20;1.50;99.90
14670;DHT22;7423;48.722;9.350;2023-01-30T01:13:55;1.60;99.90
14670;DHT22;7423;48.722;9.350;2023-01-30T01:16:23;1.60;99.90
14670;DHT22;7423;48.722;9.350;2023-01-30T01:18:51;1.60;99.90
14670;DHT22;7423;48.722;9.350;2023-01-30T01:21:18;1.60;99.90
14670;DHT22;7423;48.722;9.350;2023-01-30T01:23:53;1.60;99.90
14670;DHT22;7423;48.722;9.350;2023-01-30T01:26:22;1.60;99.90
14670;DHT22;7423;48.722;9.350;2023-01-30T01:28:52;1.70;99.90
14670;DHT22;7423;48.722;9.350;2023-01-30T01:31:20;1.70;99.90
14670;DHT22;7423;48.722;9.350;2023-01-30T01:33:47;1.80;99.90
14670;DHT22;7423;48.722;9.350;2023-01-30T01:36:14;1.80;99.90
14670;DHT22;7423;48.722;9.350;2023-01-30T01:39:01;1.70;99.90
14670;DHT22;7423;48.722;9.350;2023-01-30T01:41:29;1.70;99.90
14670;DHT22;7423;48.722;9.350;2023-01-30T01:44:14;1.60;99.90
14670;DHT22;7423;48.722;9.350;2023-01-30T01:46:55;1.70;99.90
14670;DHT22;7423;48.722;9.350;2023-01-30T01:49:26;1.70;99.90
14670;DHT22;7423;48.722;9.350;2023-01-30T01:52:05;1.70;99.90
14670;DHT22;7423;48.722;9.350;2023-01-30T01:54:44;1.70;99.90
14670;DHT22;7423;48.722;9.350;2023-01-30T01:57:24;1.90;99.90
14670;DHT22;7423;48.722;9.350;2023-01-30T02:00:16;2.00;99.90
14670;DHT22;7423;48.722;9.350;2023-01-30T02:02:53;1.90;99.90
14670;DHT22;7423;48.722;9.350;2023-01-30T02:05:24;1.90;99.90
14670;DHT22;7423;48.722;9.350;2023-01-30T02:08:07;1.90;99.90
14670;DHT22;7423;48.722;9.350;2023-01-30T02:13:35;1.50;99.90
14670;DHT22;7423;48.722;9.350;2023-01-30T02:16:04;1.80;99.90
14670;DHT22;7423;48.722;9.350;2023-01-30T02:18:34;1.80;99.90
14670;DHT22;7423;48.722;9.350;2023-01-30T02:29:48;1.70;99.90
14670;DHT22;7423;48.722;9.350;2023-01-30T02:38:33;1.70;99.90
14670;DHT22;7423;48.722;9.350;2023-01-30T02:47:17;1.70;99.90
14670;DHT22;7423;48.722;9.350;2023-01-30T02:49:51;1.60;99.90
14670;DHT22;7423;48.722;9.350;2023-01-30T02:52:22;1.70;99.90
14670;DHT22;7423;48.722;9.350;2023-01-30T02:54:49;1.70;99.90
14670;DHT22;7423;48.722;9.350;2023-01-30T02:57:19;1.70;99.90
14670;DHT22;7423;48.722;9.350;2023-01-30T03:00:00;1.70;99.90
14670;DHT22;7423;48.722;9.350;2023-01-30T03:06:18;1.70;99.90
14670;DHT22;7423;48.722;9.350;2023-01-30T03:09:08;1.70;99.90
14670;DHT22;7423;48.722;9.350;2023-01-30T03:11:46;1.60;99.90
14670;DHT22;7423;48.722;9.350;2023-01-30T03:14:55;1.60;99.90
14670;DHT22;7423;48.722;9.350;2023-01-30T03:17:26;1.70;99.90
14670;DHT22;7423;48.722;9.350;2023-01-30T03:19:54;1.80;99.90
14670;DHT22;7423;48.722;9.350;2023-01-30T03:22:22;1.80;99.90
14670;DHT22;7423;48.722;9.350;2023-01-30T03:24:51;1.70;99.90
14670;DHT22;7423;48.722;9.350;2023-01-30T03:27:20;1.70;99.90
14670;DHT22;7423;48.722;9.350;2023-01-30T03:29:47;1.60;99.90
14670;DHT22;7423;48.722;9.350;2023-01-30T03:32:14;1.60;99.90
14670;DHT22;7423;48.722;9.350;2023-01-30T03:34:41;1.60;99.90
14670;DHT22;7423;48.722;9.350;2023-01-30T03:37:08;1.60;99.90
14670;DHT22;7423;48.722;9.350;2023-01-30T03:39:35;1.60;99.90
14670;DHT22;7423;48.722;9.350;2023-01-30T03:42:02;1.80;99.90
14670;DHT22;7423;48.722;9.350;2023-01-30T03:44:29;1.80;99.90
14670;DHT22;7423;48.722;9.350;2023-01-30T03:46:56;1.80;99.90
14670;DHT22;7423;48.722;9.350;2023-01-30T03:49:23;1.80;99.90
14670;DHT22;7423;48.722;9.350;2023-01-30T03:51:49;1.80;99.90
14670;DHT22;7423;48.722;9.350;2023-01-30T03:54:16;1.90;99.90
14670;DHT22;7423;48.722;9.350;2023-01-30T03:56:43;1.90;99.90
14670;DHT22;7423;48.722;9.350;2023-01-30T03:59:10;1.90;99.90
14670;DHT22;7423;48.722;9.350;2023-01-30T04:01:37;1.90;99.90
14670;DHT22;7423;48.722;9.350;2023-01-30T04:04:04;1.90;99.90
14670;DHT22;7423;48.722;9.350;2023-01-30T04:06:31;2.00;99.90
14670;DHT22;7423;48.722;9.350;2023-01-30T04:08:58;2.10;99.90
14670;DHT22;7423;48.722;9.350;2023-01-30T04:11:25;2.10;99.90
14670;DHT22;7423;48.722;9.350;2023-01-30T04:13:51;2.20;99.90
14670;DHT22;7423;48.722;9.350;2023-01-30T04:16:21;2.20;99.90
14670;DHT22;7423;48.722;9.350;2023-01-30T04:18:50;2.20;99.90
14670;DHT22;7423;48.722;9.350;2023-01-30T04:21:18;2.40;99.90
14670;DHT22;7423;48.722;9.350;2023-01-30T04:23:44;2.40;99.90
14670;DHT22;7423;48.722;9.350;2023-01-30T04:26:12;2.40;99.90
14670;DHT22;7423;48.722;9.350;2023-01-30T04:28:39;2.40;99.90
14670;DHT22;7423;48.722;9.350;2023-01-30T04:31:06;2.40;99.90
14670;DHT22;7423;48.722;9.350;2023-01-30T04:33:33;2.50;99.90
14670;DHT22;7423;48.722;9.350;2023-01-30T04:36:02;2.60;99.90
14670;DHT22;7423;48.722;9.350;2023-01-30T04:38:30;2.70;99.90
14670;DHT22;7423;48.722;9.350;2023-01-30T04:40:58;2.70;99.90
14670;DHT22;7423;48.722;9.350;2023-01-30T04:43:26;2.70;99.90
14670;DHT22;7423;48.722;9.350;2023-01-30T04:45:54;2.70;99.90
14670;DHT22;7423;48.722;9.350;2023-01-30T04:48:22;3.00;99.90
14670;DHT22;7423;48.722;9.350;2023-01-30T04:50:52;2.90;99.90
14670;DHT22;7423;48.722;9.350;2023-01-30T04:53:20;3.00;99.90
14670;DHT22;7423;48.722;9.350;2023-01-30T04:55:48;3.10;99.90
14670;DHT22;7423;48.722;9.350;2023-01-30T04:58:16;3.00;99.90
14670;DHT22;7423;48.722;9.350;2023-01-30T05:00:45;3.00;99.90
14670;DHT22;7423;48.722;9.350;2023-01-30T05:03:13;3.00;99.90
14670;DHT22;7423;48.722;9.350;2023-01-30T05:05:40;3.00;99.90
14670;DHT22;7423;48.722;9.350;2023-01-30T05:08:07;3.00;99.90
14670;DHT22;7423;48.722;9.350;2023-01-30T05:10:34;3.10;99.90
14670;DHT22;7423;48.722;9.350;2023-01-30T05:13:04;3.10;99.90
14670;DHT22;7423;48.722;9.350;2023-01-30T05:15:32;3.10;99.90
14670;DHT22;7423;48.722;9.350;2023-01-30T05:17:59;3.00;99.90
14670;DHT22;7423;48.722;9.350;2023-01-30T05:20:26;3.10;99.90
14670;DHT22;7423;48.722;9.350;2023-01-30T05:22:53;3.10;99.90
14670;DHT22;7423;48.722;9.350;2023-01-30T05:25:20;3.10;99.90
14670;DHT22;7423;48.722;9.350;2023-01-30T05:27:47;3.20;99.90
14670;DHT22;7423;48.722;9.350;2023-01-30T05:30:14;3.20;99.90
14670;DHT22;7423;48.722;9.350;2023-01-30T05:32:41;3.20;99.90
14670;DHT22;7423;48.722;9.350;2023-01-30T05:35:08;3.30;99.90
14670;DHT22;7423;48.722;9.350;2023-01-30T05:37:35;3.30;99.90
14670;DHT22;7423;48.722;9.350;2023-01-30T05:40:03;3.30;99.90
14670;DHT22;7423;48.722;9.350;2023-01-30T05:42:32;3.30;99.90
14670;DHT22;7423;48.722;9.350;2023-01-30T05:44:58;3.40;99.90
14670;DHT22;7423;48.722;9.350;2023-01-30T05:47:25;3.30;99.90
14670;DHT22;7423;48.722;9.350;2023-01-30T05:49:52;3.00;99.90
14670;DHT22;7423;48.722;9.350;2023-01-30T05:52:19;3.00;99.90
14670;DHT22;7423;48.722;9.350;2023-01-30T05:54:46;3.00;99.90
14670;DHT22;7423;48.722;9.350;2023-01-30T05:57:13;2.60;99.90
14670;DHT22;7423;48.722;9.350;2023-01-30T05:59:40;2.70;99.90
14670;DHT22;7423;48.722;9.350;2023-01-30T06:02:07;2.80;99.90
14670;DHT22;7423;48.722;9.350;2023-01-30T06:04:35;3.00;99.90
14670;DHT22;7423;48.722;9.350;2023-01-30T06:07:02;3.10;99.90
14670;DHT22;7423;48.722;9.350;2023-01-30T06:09:29;3.30;99.90
14670;DHT22;7423;48.722;9.350;2023-01-30T06:11:56;3.30;99.90
14670;DHT22;7423;48.722;9.350;2023-01-30T06:14:23;3.40;99.90
14670;DHT22;7423;48.722;9.350;2023-01-30T06:16:50;3.40;99.90
14670;DHT22;7423;48.722;9.350;2023-01-30T06:19:16;3.40;99.90
14670;DHT22;7423;48.722;9.350;2023-01-30T06:21:43;3.50;99.90
14670;DHT22;7423;48.722;9.350;2023-01-30T06:24:10;3.50;99.90
14670;DHT22;7423;48.722;9.350;2023-01-30T06:26:37;3.60;99.90
14670;DHT22;7423;48.722;9.350;2023-01-30T06:29:04;3.60;99.90
14670;DHT22;7423;48.722;9.350;2023-01-30T06:31:31;4.40;99.90
14670;DHT22;7423;48.722;9.350;2023-01-30T06:33:57;3.60;99.90
14670;DHT22;7423;48.722;9.350;2023-01-30T06:36:24;3.70;99.90
14670;DHT22;7423;48.722;9.350;2023-01-30T06:38:51;3.70;99.90
14670;DHT22;7423;48.722;9.350;2023-01-30T06:41:18;3.80;99.90
14670;DHT22;7423;48.722;9.350;2023-01-30T06:43:45;3.70;99.90
14670;DHT22;7423;48.722;9.350;2023-01-30T06:46:12;3.80;99.90
14670;DHT22;7423;48.722;9.350;2023-01-30T06:48:39;3.90;99.90
14670;DHT22;7423;48.722;9.350;2023-01-30T06:51:06;3.80;99.90
14670;DHT22;7423;48.722;9.350;2023-01-30T06:53:32;3.80;99.90
14670;DHT22;7423;48.722;9.350;2023-01-30T06:56:00;3.90;99.90
14670;DHT22;7423;48.722;9.350;2023-01-30T06:58:27;3.90;99.90
14670;DHT22;7423;48.722;9.350;2023-01-30T07:00:55;4.00;99.90
14670;DHT22;7423;48.722;9.350;2023-01-30T07:03:22;3.90;99.90
14670;DHT22;7423;48.722;9.350;2023-01-30T07:05:49;4.00;99.90
14670;DHT22;7423;48.722;9.350;2023-01-30T07:08:16;3.90;99.90
14670;DHT22;7423;48.722;9.350;2023-01-30T07:10:43;4.00;99.90
14670;DHT22;7423;48.722;9.350;2023-01-30T07:13:11;3.90;99.90
14670;DHT22;7423;48.722;9.350;2023-01-30T07:15:38;3.90;99.90
14670;DHT22;7423;48.722;9.350;2023-01-30T07:18:05;3.90;99.90
14670;DHT22;7423;48.722;9.350;2023-01-30T07:20:32;4.10;99.90
14670;DHT22;7423;48.722;9.350;2023-01-30T07:22:59;4.10;99.90
14670;DHT22;7423;48.722;9.350;2023-01-30T07:25:27;4.10;99.90
14670;DHT22;7423;48.722;9.350;2023-01-30T07:27:59;4.10;99.90
14670;DHT22;7423;48.722;9.350;2023-01-30T07:30:29;4.10;99.90
14670;DHT22;7423;48.722;9.350;2023-01-30T07:32:58;4.20;99.90
14670;DHT22;7423;48.722;9.350;2023-01-30T07:35:27;4.10;99.90
14670;DHT22;7423;48.722;9.350;2023-01-30T07:37:55;4.20;99.90
14670;DHT22;7423;48.722;9.350;2023-01-30T07:40:22;4.10;99.90
14670;DHT22;7423;48.722;9.350;2023-01-30T07:43:00;4.30;99.90
14670;DHT22;7423;48.722;9.350;2023-01-30T07:45:45;4.30;99.90
14670;DHT22;7423;48.722;9.350;2023-01-30T07:48:15;4.20;99.90
14670;DHT22;7423;48.722;9.350;2023-01-30T07:50:44;4.20;99.90
14670;DHT22;7423;48.722;9.350;2023-01-30T07:53:14;4.20;99.90
14670;DHT22;7423;48.722;9.350;2023-01-30T07:55:41;4.10;99.90
14670;DHT22;7423;48.722;9.350;2023-01-30T07:58:12;4.20;99.90
14670;DHT22;7423;48.722;9.350;2023-01-30T08:00:40;4.40;99.90
14670;DHT22;7423;48.722;9.350;2023-01-30T08:03:11;4.40;99.90
14670;DHT22;7423;48.722;9.350;2023-01-30T08:05:39;4.40;99.90
14670;DHT22;7423;48.722;9.350;2023-01-30T08:08:06;4.50;99.90
14670;DHT22;7423;48.722;9.350;2023-01-30T08:10:33;4.50;99.90
14670;DHT22;7423;48.722;9.350;2023-01-30T08:13:00;4.50;99.90
14670;DHT22;7423;48.722;9.350;2023-01-30T08:15:27;4.50;99.90
14670;DHT22;7423;48.722;9.350;2023-01-30T08:17:59;4.60;99.90
14670;DHT22;7423;48.722;9.350;2023-01-30T08:20:26;4.60;99.90
14670;DHT22;7423;48.722;9.350;2023-01-30T08:22:54;4.70;99.90
14670;DHT22;7423;48.722;9.350;2023-01-30T08:25:21;4.80;99.90
14670;DHT22;7423;48.722;9.350;2023-01-30T08:27:49;4.70;99.90
14670;DHT22;7423;48.722;9.350;2023-01-30T08:30:16;4.70;99.90
14670;DHT22;7423;48.722;9.350;2023-01-30T08:32:44;4.60;99.90
14670;DHT22;7423;48.722;9.350;2023-01-30T08:35:11;4.60;99.90
14670;DHT22;7423;48.722;9.350;2023-01-30T08:37:39;4.60;99.90
14670;DHT22;7423;48.722;9.350;2023-01-30T08:40:07;4.70;99.90
14670;DHT22;7423;48.722;9.350;2023-01-30T08:42:35;4.80;99.90
14670;DHT22;7423;48.722;9.350;2023-01-30T08:45:02;4.40;99.90
14670;DHT22;7423;48.722;9.350;2023-01-30T08:47:29;4.50;99.90
14670;DHT22;7423;48.722;9.350;2023-01-30T08:49:56;4.40;99.90
14670;DHT22;7423;48.722;9.350;2023-01-30T08:52:23;4.50;99.90
14670;DHT22;7423;48.722;9.350;2023-01-30T08:54:51;4.20;99.90
14670;DHT22;7423;48.722;9.350;2023-01-30T08:57:19;4.00;99.90
14670;DHT22;7423;48.722;9.350;2023-01-30T08:59:46;4.30;99.90
14670;DHT22;7423;48.722;9.350;2023-01-30T09:02:13;4.40;99.90
14670;DHT22;7423;48.722;9.350;2023-01-30T09:04:40;4.40;99.90
14670;DHT22;7423;48.722;9.350;2023-01-30T09:07:06;4.50;99.90
14670;DHT22;7423;48.722;9.350;2023-01-30T09:09:34;4.50;99.90
14670;DHT22;7423;48.722;9.350;2023-01-30T09:12:01;4.70;99.90
14670;DHT22;7423;48.722;9.350;2023-01-30T09:14:28;4.70;99.90
14670;DHT22;7423;48.722;9.350;2023-01-30T09:16:55;4.80;99.90
14670;DHT22;7423;48.722;9.350;2023-01-30T09:19:23;4.90;99.90
14670;DHT22;7423;48.722;9.350;2023-01-30T09:21:52;5.60;99.90
14670;DHT22;7423;48.722;9.350;2023-01-30T09:24:19;4.60;99.90
14670;DHT22;7423;48.722;9.350;2023-01-30T09:26:52;4.60;99.90
14670;DHT22;7423;48.722;9.350;2023-01-30T09:29:20;4.60;99.90
14670;DHT22;7423;48.722;9.350;2023-01-30T09:31:46;4.50;99.90
14670;DHT22;7423;48.722;9.350;2023-01-30T09:34:14;4.70;99.90
14670;DHT22;7423;48.722;9.350;2023-01-30T09:36:41;4.90;99.90
14670;DHT22;7423;48.722;9.350;2023-01-30T09:39:08;4.90;99.90
14670;DHT22;7423;48.722;9.350;2023-01-30T09:41:49;5.00;99.90
14670;DHT22;7423;48.722;9.350;2023-01-30T09:47:47;5.20;99.90
14670;DHT22;7423;48.722;9.350;2023-01-30T09:53:28;5.50;99.90
14670;DHT22;7423;48.722;9.350;2023-01-30T09:55:58;5.50;99.90
14670;DHT22;7423;48.722;9.350;2023-01-30T09:58:44;5.50;99.90
14670;DHT22;7423;48.722;9.350;2023-01-30T10:04:34;5.50;99.90
14670;DHT22;7423;48.722;9.350;2023-01-30T10:09:55;5.40;99.90
14670;DHT22;7423;48.722;9.350;2023-01-30T10:12:54;5.40;99.90
14670;DHT22;7423;48.722;9.350;2023-01-30T10:15:53;5.50;99.90
14670;DHT22;7423;48.722;9.350;2023-01-30T10:18:39;5.50;99.90
14670;DHT22;7423;48.722;9.350;2023-01-30T10:26:51;5.80;99.90
14670;DHT22;7423;48.722;9.350;2023-01-30T10:29:35;5.80;99.90
14670;DHT22;7423;48.722;9.350;2023-01-30T10:32:11;5.80;99.90
14670;DHT22;7423;48.722;9.350;2023-01-30T10:34:56;5.90;99.90
14670;DHT22;7423;48.722;9.350;2023-01-30T10:37:32;6.00;99.90
14670;DHT22;7423;48.722;9.350;2023-01-30T10:43:35;6.00;99.90
14670;DHT22;7423;48.722;9.350;2023-01-30T10:55:24;6.20;99.90
14670;DHT22;7423;48.722;9.350;2023-01-30T11:01:00;6.30;99.90
14670;DHT22;7423;48.722;9.350;2023-01-30T11:03:37;6.10;99.90
14670;DHT22;7423;48.722;9.350;2023-01-30T11:06:14;6.10;99.90
14670;DHT22;7423;48.722;9.350;2023-01-30T11:08:43;6.20;99.90
14670;DHT22;7423;48.722;9.350;2023-01-30T11:14:13;6.10;99.90
14670;DHT22;7423;48.722;9.350;2023-01-30T11:16:53;5.80;99.90
14670;DHT22;7423;48.722;9.350;2023-01-30T11:19:31;5.90;99.90
14670;DHT22;7423;48.722;9.350;2023-01-30T11:22:04;5.80;99.90
14670;DHT22;7423;48.722;9.350;2023-01-30T11:24:38;5.90;99.90
14670;DHT22;7423;48.722;9.350;2023-01-30T11:27:23;6.00;99.90
14670;DHT22;7423;48.722;9.350;2023-01-30T11:32:35;6.20;99.90
14670;DHT22;7423;48.722;9.350;2023-01-30T11:37:33;6.30;99.90
14670;DHT22;7423;48.722;9.350;2023-01-30T11:43:12;6.30;99.90
14670;DHT22;7423;48.722;9.350;2023-01-30T11:45:47;6.40;99.90
14670;DHT22;7423;48.722;9.350;2023-01-30T11:48:20;6.40;99.90
14670;DHT22;7423;48.722;9.350;2023-01-30T11:51:11;6.30;99.90
14670;DHT22;7423;48.722;9.350;2023-01-30T11:53:47;6.20;99.90
14670;DHT22;7423;48.722;9.350;2023-01-30T11:56:22;6.20;99.90
14670;DHT22;7423;48.722;9.350;2023-01-30T11:59:04;6.10;99.90
14670;DHT22;7423;48.722;9.350;2023-01-30T12:01:34;6.30;99.90
14670;DHT22;7423;48.722;9.350;2023-01-30T12:04:07;6.30;99.90
14670;DHT22;7423;48.722;9.350;2023-01-30T12:06:39;6.40;99.90
14670;DHT22;7423;48.722;9.350;2023-01-30T12:09:29;6.20;99.90
14670;DHT22;7423;48.722;9.350;2023-01-30T12:11:58;6.20;99.90
14670;DHT22;7423;48.722;9.350;2023-01-30T12:17:12;6.10;99.90
14670;DHT22;7423;48.722;9.350;2023-01-30T12:20:10;6.10;99.90
14670;DHT22;7423;48.722;9.350;2023-01-30T12:25:31;6.80;99.90
14670;DHT22;7423;48.722;9.350;2023-01-30T12:28:05;6.10;99.90
14670;DHT22;7423;48.722;9.350;2023-01-30T12:30:45;6.00;99.90
14670;DHT22;7423;48.722;9.350;2023-01-30T12:33:29;6.10;99.90
14670;DHT22;7423;48.722;9.350;2023-01-30T12:36:09;6.20;99.90
14670;DHT22;7423;48.722;9.350;2023-01-30T12:38:55;6.20;99.90
14670;DHT22;7423;48.722;9.350;2023-01-30T12:50:44;6.30;99.90
14670;DHT22;7423;48.722;9.350;2023-01-30T12:53:18;6.10;99.90
14670;DHT22;7423;48.722;9.350;2023-01-30T12:59:13;6.10;99.90
14670;DHT22;7423;48.722;9.350;2023-01-30T13:02:03;6.20;99.90
14670;DHT22;7423;48.722;9.350;2023-01-30T13:05:05;6.30;99.90
14670;DHT22;7423;48.722;9.350;2023-01-30T13:13:35;6.30;99.90
14670;DHT22;7423;48.722;9.350;2023-01-30T13:16:46;6.30;99.90
14670;DHT22;7423;48.722;9.350;2023-01-30T13:19:55;6.30;99.90
14670;DHT22;7423;48.722;9.350;2023-01-30T13:22:53;6.20;99.90
14670;DHT22;7423;48.722;9.350;2023-01-30T13:29:37;6.20;99.90
14670;DHT22;7423;48.722;9.350;2023-01-30T13:31:55;6.10;99.90
14670;DHT22;7423;48.722;9.350;2023-01-30T13:34:43;6.20;99.90
14670;DHT22;7423;48.722;9.350;2023-01-30T13:37:13;6.20;99.90
14670;DHT22;7423;48.722;9.350;2023-01-30T13:40:10;6.20;99.90
14670;DHT22;7423;48.722;9.350;2023-01-30T13:42:58;6.30;99.90
14670;DHT22;7423;48.722;9.350;2023-01-30T13:45:33;6.20;99.90
14670;DHT22;7423;48.722;9.350;2023-01-30T13:48:25;6.10;99.90
14670;DHT22;7423;48.722;9.350;2023-01-30T13:54:24;6.00;99.90
14670;DHT22;7423;48.722;9.350;2023-01-30T14:11:34;6.10;99.90
14670;DHT22;7423;48.722;9.350;2023-01-30T14:16:49;6.00;99.90
14670;DHT22;7423;48.722;9.350;2023-01-30T14:19:38;5.90;99.90
14670;DHT22;7423;48.722;9.350;2023-01-30T14:22:17;5.70;99.90
14670;DHT22;7423;48.722;9.350;2023-01-30T14:27:52;5.80;99.90
14670;DHT22;7423;48.722;9.350;2023-01-30T14:30:56;5.90;99.90
14670;DHT22;7423;48.722;9.350;2023-01-30T14:38:25;6.20;99.90
14670;DHT22;7423;48.722;9.350;2023-01-30T14:59:45;6.00;99.90
14670;DHT22;7423;48.722;9.350;2023-01-30T15:02:40;6.00;99.90
14670;DHT22;7423;48.722;9.350;2023-01-30T15:05:20;6.00;99.90
14670;DHT22;7423;48.722;9.350;2023-01-30T15:13:43;6.20;99.90
14670;DHT22;7423;48.722;9.350;2023-01-30T15:16:39;6.10;99.90
14670;DHT22;7423;48.722;9.350;2023-01-30T15:22:36;6.20;99.90
14670;DHT22;7423;48.722;9.350;2023-01-30T15:25:37;6.20;99.90
14670;DHT22;7423;48.722;9.350;2023-01-30T15:31:14;6.40;99.90
14670;DHT22;7423;48.722;9.350;2023-01-30T15:33:49;6.60;99.90
14670;DHT22;7423;48.722;9.350;2023-01-30T15:36:26;6.60;99.90
14670;DHT22;7423;48.722;9.350;2023-01-30T15:39:04;6.60;99.90
14670;DHT22;7423;48.722;9.350;2023-01-30T15:41:36;6.70;99.90
14670;DHT22;7423;48.722;9.350;2023-01-30T15:52:46;6.90;99.90
14670;DHT22;7423;48.722;9.350;2023-01-30T15:55:24;6.90;99.90
14670;DHT22;7423;48.722;9.350;2023-01-30T15:58:00;6.70;99.90
14670;DHT22;7423;48.722;9.350;2023-01-30T16:00:35;6.70;99.90
14670;DHT22;7423;48.722;9.350;2023-01-30T16:03:10;6.80;99.90
14670;DHT22;7423;48.722;9.350;2023-01-30T16:05:51;6.70;99.90
14670;DHT22;7423;48.722;9.350;2023-01-30T16:08:28;6.60;99.90
14670;DHT22;7423;48.722;9.350;2023-01-30T16:10:59;6.60;99.90
14670;DHT22;7423;48.722;9.350;2023-01-30T16:13:27;6.70;99.90
14670;DHT22;7423;48.722;9.350;2023-01-30T16:16:24;6.70;99.90
14670;DHT22;7423;48.722;9.350;2023-01-30T16:18:58;6.80;99.90
14670;DHT22;7423;48.722;9.350;2023-01-30T16:21:32;6.80;99.90
14670;DHT22;7423;48.722;9.350;2023-01-30T16:26:55;6.90;99.90
14670;DHT22;7423;48.722;9.350;2023-01-30T16:29:28;6.80;99.90
14670;DHT22;7423;48.722;9.350;2023-01-30T16:31:57;6.90;99.90
14670;DHT22;7423;48.722;9.350;2023-01-30T16:34:33;6.80;99.90
14670;DHT22;7423;48.722;9.350;2023-01-30T16:39:42;6.80;99.90
14670;DHT22;7423;48.722;9.350;2023-01-30T16:42:25;6.90;99.90
14670;DHT22;7423;48.722;9.350;2023-01-30T16:53:28;6.90;99.90
14670;DHT22;7423;48.722;9.350;2023-01-30T16:56:02;6.90;99.90
14670;DHT22;7423;48.722;9.350;2023-01-30T16:58:37;7.00;99.90
14670;DHT22;7423;48.722;9.350;2023-01-30T17:01:06;6.90;99.90
14670;DHT22;7423;48.722;9.350;2023-01-30T17:03:36;6.90;99.90
14670;DHT22;7423;48.722;9.350;2023-01-30T17:06:07;6.80;99.90
14670;DHT22;7423;48.722;9.350;2023-01-30T17:08:52;6.70;99.90
14670;DHT22;7423;48.722;9.350;2023-01-30T17:11:33;6.60;99.90
14670;DHT22;7423;48.722;9.350;2023-01-30T17:17:01;6.70;99.90
14670;DHT22;7423;48.722;9.350;2023-01-30T17:19:37;6.60;99.90
14670;DHT22;7423;48.722;9.350;2023-01-30T17:22:07;6.80;99.90
14670;DHT22;7423;48.722;9.350;2023-01-30T17:24:43;6.80;99.90
14670;DHT22;7423;48.722;9.350;2023-01-30T17:27:10;6.80;99.90
14670;DHT22;7423;48.722;9.350;2023-01-30T17:29:36;6.70;99.90
14670;DHT22;7423;48.722;9.350;2023-01-30T17:32:11;6.70;99.90
14670;DHT22;7423;48.722;9.350;2023-01-30T17:34:39;6.70;99.90
14670;DHT22;7423;48.722;9.350;2023-01-30T17:37:26;6.70;99.90
14670;DHT22;7423;48.722;9.350;2023-01-30T17:39:53;6.90;99.90
14670;DHT22;7423;48.722;9.350;2023-01-30T17:42:20;6.80;99.90
14670;DHT22;7423;48.722;9.350;2023-01-30T17:44:48;6.70;99.90
14670;DHT22;7423;48.722;9.350;2023-01-30T17:47:14;6.60;99.90
14670;DHT22;7423;48.722;9.350;2023-01-30T17:49:41;7.40;99.90
14670;DHT22;7423;48.722;9.350;2023-01-30T17:52:10;6.70;99.90
14670;DHT22;7423;48.722;9.350;2023-01-30T17:54:39;6.60;99.90
14670;DHT22;7423;48.722;9.350;2023-01-30T17:57:06;6.50;99.90
14670;DHT22;7423;48.722;9.350;2023-01-30T17:59:35;6.60;99.90
14670;DHT22;7423;48.722;9.350;2023-01-30T18:02:02;6.50;99.90
14670;DHT22;7423;48.722;9.350;2023-01-30T18:04:29;6.40;99.90
14670;DHT22;7423;48.722;9.350;2023-01-30T18:07:00;6.20;99.90
14670;DHT22;7423;48.722;9.350;2023-01-30T18:09:30;6.30;99.90
14670;DHT22;7423;48.722;9.350;2023-01-30T18:11:57;6.30;99.90
14670;DHT22;7423;48.722;9.350;2023-01-30T18:14:24;6.40;99.90
14670;DHT22;7423;48.722;9.350;2023-01-30T18:16:51;6.40;99.90
14670;DHT22;7423;48.722;9.350;2023-01-30T18:19:18;6.40;99.90
14670;DHT22;7423;48.722;9.350;2023-01-30T18:21:49;6.40;99.90
14670;DHT22;7423;48.722;9.350;2023-01-30T18:24:16;6.40;99.90
14670;DHT22;7423;48.722;9.350;2023-01-30T18:26:44;6.40;99.90
14670;DHT22;7423;48.722;9.350;2023-01-30T18:29:12;6.50;99.90
14670;DHT22;7423;48.722;9.350;2023-01-30T18:31:39;6.50;99.90
14670;DHT22;7423;48.722;9.350;2023-01-30T18:34:06;6.40;99.90
14670;DHT22;7423;48.722;9.350;2023-01-30T18:36:35;6.40;99.90
14670;DHT22;7423;48.722;9.350;2023-01-30T18:39:02;6.60;99.90
14670;DHT22;7423;48.722;9.350;2023-01-30T18:41:30;6.60;99.90
14670;DHT22;7423;48.722;9.350;2023-01-30T18:43:59;6.70;99.90
14670;DHT22;7423;48.722;9.350;2023-01-30T18:46:27;6.70;99.90
14670;DHT22;7423;48.722;9.350;2023-01-30T18:48:55;6.80;99.90
14670;DHT22;7423;48.722;9.350;2023-01-30T18:51:25;6.90;99.90
14670;DHT22;7423;48.722;9.350;2023-01-30T18:53:53;6.90;99.90
14670;DHT22;7423;48.722;9.350;2023-01-30T18:56:29;7.00;99.90
14670;DHT22;7423;48.722;9.350;2023-01-30T18:59:00;6.90;99.90
14670;DHT22;7423;48.722;9.350;2023-01-30T19:01:35;6.90;99.90
14670;DHT22;7423;48.722;9.350;2023-01-30T19:04:06;6.90;99.90
14670;DHT22;7423;48.722;9.350;2023-01-30T19:06:39;6.90;99.90
14670;DHT22;7423;48.722;9.350;2023-01-30T19:09:11;6.90;99.90
14670;DHT22;7423;48.722;9.350;2023-01-30T19:11:39;6.90;99.90
14670;DHT22;7423;48.722;9.350;2023-01-30T19:14:26;7.00;99.90
14670;DHT22;7423;48.722;9.350;2023-01-30T19:16:52;6.90;99.90
14670;DHT22;7423;48.722;9.350;2023-01-30T19:19:20;6.80;99.90
14670;DHT22;7423;48.722;9.350;2023-01-30T19:21:47;6.80;99.90
14670;DHT22;7423;48.722;9.350;2023-01-30T19:24:15;6.80;99.90
14670;DHT22;7423;48.722;9.350;2023-01-30T19:26:43;6.70;99.90
14670;DHT22;7423;48.722;9.350;2023-01-30T19:29:10;6.70;99.90
14670;DHT22;7423;48.722;9.350;2023-01-30T19:31:37;6.80;99.90
14670;DHT22;7423;48.722;9.350;2023-01-30T19:34:04;6.80;99.90
14670;DHT22;7423;48.722;9.350;2023-01-30T19:36:32;6.60;99.90
14670;DHT22;7423;48.722;9.350;2023-01-30T19:39:01;6.60;99.90